sensor_id;sensor_type;location;lat;lon;timestamp;pressure;altitude;pressure_sealevel;temperature;humidity
13604;BME280;24578;48.264;11.436;2023-09-12T00:01:04;95916.03;;;16.55;100.00
13604;BME280;24578;48.264;11.436;2023-09-12T00:07:26;95905.22;;;16.42;100.00
13604;BME280;24578;48.264;11.436;2023-09-12T00:13:47;95897.78;;;16.29;100.00
13604;BME280;24578;48.264;11.436;2023-09-12T00:20:09;95895.44;;;16.18;100.00
13604;BME280;24578;48.264;11.436;2023-09-12T00:26:30;95894.88;;;16.06;100.00
13604;BME280;24578;48.264;11.436;2023-09-12T00:32:51;95896.97;;;16.02;100.00
13604;BME280;24578;48.264;11.436;2023-09-12T00:39:12;95885.53;;;15.95;100.00
13604;BME280;24578;48.264;11.436;2023-09-12T00:45:34;95878.28;;;15.89;100.00
13604;BME280;24578;48.264;11.436;2023-09-12T00:51:56;95874.63;;;15.81;100.00
13604;BME280;24578;48.264;11.436;2023-09-12T00:58:18;95877.84;;;15.75;100.00
13604;BME280;24578;48.264;11.436;2023-09-12T01:04:39;95867.03;;;15.70;100.00
13604;BME280;24578;48.264;11.436;2023-09-12T01:11:01;95866.81;;;15.63;100.00
13604;BME280;24578;48.264;11.436;2023-09-12T01:17:24;95859.75;;;15.56;100.00
13604;BME280;24578;48.264;11.436;2023-09-12T01:24:05;95868.19;;;15.49;100.00
13604;BME280;24578;48.264;11.436;2023-09-12T01:30:34;95863.72;;;15.42;100.00
13604;BME280;24578;48.264;11.436;2023-09-12T01:36:56;95860.88;;;15.35;100.00
13604;BME280;24578;48.264;11.436;2023-09-12T01:43:21;95863.81;;;15.32;100.00
13604;BME280;24578;48.264;11.436;2023-09-12T01:49:47;95867.00;;;15.26;100.00
13604;BME280;24578;48.264;11.436;2023-09-12T01:56:08;95879.66;;;15.20;100.00
13604;BME280;24578;48.264;11.436;2023-09-12T02:02:30;95879.44;;;15.14;100.00
13604;BME280;24578;48.264;11.436;2023-09-12T02:08:51;95886.75;;;15.10;100.00
13604;BME280;24578;48.264;11.436;2023-09-12T02:15:12;95893.88;;;15.08;100.00
13604;BME280;24578;48.264;11.436;2023-09-12T02:21:33;95893.66;;;15.01;100.00
13604;BME280;24578;48.264;11.436;2023-09-12T02:27:54;95889.13;;;15.03;100.00
13604;BME280;24578;48.264;11.436;2023-09-12T02:34:15;95895.06;;;14.96;100.00
13604;BME280;24578;48.264;11.436;2023-09-12T02:40:38;95895.88;;;14.96;100.00
13604;BME280;24578;48.264;11.436;2023-09-12T02:46:59;95894.38;;;14.94;100.00
13604;BME280;24578;48.264;11.436;2023-09-12T02:53:20;95896.75;;;14.87;100.00
13604;BME280;24578;48.264;11.436;2023-09-12T02:59:41;95899.28;;;14.79;100.00
13604;BME280;24578;48.264;11.436;2023-09-12T03:06:03;95894.94;;;14.69;100.00
13604;BME280;24578;48.264;11.436;2023-09-12T03:12:24;95897.09;;;14.64;100.00
13604;BME280;24578;48.264;11.436;2023-09-12T03:18:45;95893.00;;;14.61;100.00
13604;BME280;24578;48.264;11.436;2023-09-12T03:25:07;95888.09;;;14.58;100.00
13604;BME280;24578;48.264;11.436;2023-09-12T03:31:28;95894.56;;;14.54;100.00
13604;BME280;24578;48.264;11.436;2023-09-12T03:37:50;95888.81;;;14.51;100.00
13604;BME280;24578;48.264;11.436;2023-09-12T03:44:11;95898.31;;;14.42;100.00
13604;BME280;24578;48.264;11.436;2023-09-12T03:50:32;95906.00;;;14.43;100.00
13604;BME280;24578;48.264;11.436;2023-09-12T03:56:53;95897.66;;;14.40;100.00
13604;BME280;24578;48.264;11.436;2023-09-12T04:03:14;95904.09;;;14.36;100.00
13604;BME280;24578;48.264;11.436;2023-09-12T04:09:37;95897.25;;;14.35;100.00
13604;BME280;24578;48.264;11.436;2023-09-12T04:15:58;95905.75;;;14.27;100.00
13604;BME280;24578;48.264;11.436;2023-09-12T04:22:19;95895.09;;;14.20;100.00
13604;BME280;24578;48.264;11.436;2023-09-12T04:28:40;95895.81;;;14.12;100.00
13604;BME280;24578;48.264;11.436;2023-09-12T04:35:02;95903.09;;;14.09;100.00
13604;BME280;24578;48.264;11.436;2023-09-12T04:41:24;95903.09;;;14.09;100.00
13604;BME280;24578;48.264;11.436;2023-09-12T04:47:45;95902.25;;;14.08;100.00
13604;BME280;24578;48.264;11.436;2023-09-12T04:54:07;95898.25;;;14.14;100.00
13604;BME280;24578;48.264;11.436;2023-09-12T05:00:28;95897.31;;;14.15;100.00
13604;BME280;24578;48.264;11.436;2023-09-12T05:06:49;95900.56;;;14.27;100.00
13604;BME280;24578;48.264;11.436;2023-09-12T05:13:10;95907.91;;;14.41;100.00
13604;BME280;24578;48.264;11.436;2023-09-12T05:19:31;95914.38;;;14.65;100.00
13604;BME280;24578;48.264;11.436;2023-09-12T05:25:52;95919.41;;;14.86;100.00
13604;BME280;24578;48.264;11.436;2023-09-12T05:32:14;95921.75;;;15.26;100.00
13604;BME280;24578;48.264;11.436;2023-09-12T05:38:36;95916.69;;;15.96;100.00
13604;BME280;24578;48.264;11.436;2023-09-12T05:44:57;95921.91;;;18.26;100.00
13604;BME280;24578;48.264;11.436;2023-09-12T05:51:19;95909.66;;;21.12;100.00
13604;BME280;24578;48.264;11.436;2023-09-12T05:57:40;95912.47;;;23.38;100.00
13604;BME280;24578;48.264;11.436;2023-09-12T06:04:01;95907.47;;;25.10;77.18
13604;BME280;24578;48.264;11.436;2023-09-12T06:10:22;95898.09;;;26.04;62.30
13604;BME280;24578;48.264;11.436;2023-09-12T06:16:44;95905.81;;;27.12;55.51
13604;BME280;24578;48.264;11.436;2023-09-12T06:23:05;95902.09;;;28.40;50.06
13604;BME280;24578;48.264;11.436;2023-09-12T06:29:26;95900.28;;;28.93;48.94
13604;BME280;24578;48.264;11.436;2023-09-12T06:35:48;95900.31;;;29.68;46.38
13604;BME280;24578;48.264;11.436;2023-09-12T06:42:11;95894.56;;;30.62;43.98
13604;BME280;24578;48.264;11.436;2023-09-12T06:48:32;95901.47;;;32.12;40.32
13604;BME280;24578;48.264;11.436;2023-09-12T06:54:53;95893.00;;;32.78;39.08
13604;BME280;24578;48.264;11.436;2023-09-12T07:01:15;95894.38;;;33.50;38.01
13604;BME280;24578;48.264;11.436;2023-09-12T07:07:36;95900.81;;;34.26;36.12
13604;BME280;24578;48.264;11.436;2023-09-12T07:13:57;95904.34;;;35.63;33.48
13604;BME280;24578;48.264;11.436;2023-09-12T07:20:18;95914.69;;;36.50;31.98
13604;BME280;24578;48.264;11.436;2023-09-12T07:26:41;95905.59;;;36.94;31.99
13604;BME280;24578;48.264;11.436;2023-09-12T07:33:03;95904.97;;;38.12;30.18
13604;BME280;24578;48.264;11.436;2023-09-12T07:39:25;95896.06;;;38.87;28.75
13604;BME280;24578;48.264;11.436;2023-09-12T07:45:46;95903.88;;;39.30;28.32
13604;BME280;24578;48.264;11.436;2023-09-12T07:52:07;95896.13;;;39.60;28.26
13604;BME280;24578;48.264;11.436;2023-09-12T07:58:29;95900.25;;;40.26;26.62
13604;BME280;24578;48.264;11.436;2023-09-12T08:04:50;95906.13;;;39.73;26.91
13604;BME280;24578;48.264;11.436;2023-09-12T08:11:17;95907.00;;;39.83;27.24
13604;BME280;24578;48.264;11.436;2023-09-12T08:17:38;95899.66;;;41.18;26.21
13604;BME280;24578;48.264;11.436;2023-09-12T08:24:00;95896.41;;;42.22;24.90
13604;BME280;24578;48.264;11.436;2023-09-12T08:30:22;95900.38;;;42.81;24.71
13604;BME280;24578;48.264;11.436;2023-09-12T08:36:43;95901.84;;;42.22;25.03
13604;BME280;24578;48.264;11.436;2023-09-12T08:43:04;95901.06;;;42.60;24.88
13604;BME280;24578;48.264;11.436;2023-09-12T08:49:26;95912.00;;;42.90;24.05
13604;BME280;24578;48.264;11.436;2023-09-12T08:55:49;95896.28;;;43.68;23.75
13604;BME280;24578;48.264;11.436;2023-09-12T09:02:13;95895.97;;;43.18;23.85
13604;BME280;24578;48.264;11.436;2023-09-12T09:08:35;95892.00;;;43.16;24.13
13604;BME280;24578;48.264;11.436;2023-09-12T09:14:57;95897.00;;;43.35;24.01
13604;BME280;24578;48.264;11.436;2023-09-12T09:21:19;95886.69;;;44.17;23.09
13604;BME280;24578;48.264;11.436;2023-09-12T09:27:41;95878.34;;;43.46;22.64
13604;BME280;24578;48.264;11.436;2023-09-12T09:34:02;95883.06;;;43.37;23.13
13604;BME280;24578;48.264;11.436;2023-09-12T09:40:24;95879.66;;;43.94;22.55
13604;BME280;24578;48.264;11.436;2023-09-12T09:46:46;95873.00;;;43.49;22.47
13604;BME280;24578;48.264;11.436;2023-09-12T09:53:11;95880.19;;;42.82;23.47
13604;BME280;24578;48.264;11.436;2023-09-12T09:59:32;95872.50;;;42.84;22.95
13604;BME280;24578;48.264;11.436;2023-09-12T10:05:56;95871.38;;;42.85;23.71
13604;BME280;24578;48.264;11.436;2023-09-12T10:12:17;95865.84;;;43.45;23.89
13604;BME280;24578;48.264;11.436;2023-09-12T10:18:46;95855.72;;;44.00;22.25
13604;BME280;24578;48.264;11.436;2023-09-12T10:25:11;95856.66;;;43.71;22.43
13604;BME280;24578;48.264;11.436;2023-09-12T10:31:33;95846.75;;;44.00;22.12
13604;BME280;24578;48.264;11.436;2023-09-12T10:37:55;95849.31;;;43.71;21.32
13604;BME280;24578;48.264;11.436;2023-09-12T10:44:19;95844.34;;;43.31;20.57
13604;BME280;24578;48.264;11.436;2023-09-12T10:50:43;95840.13;;;42.61;19.60
13604;BME280;24578;48.264;11.436;2023-09-12T10:57:08;95835.94;;;42.42;20.46
13604;BME280;24578;48.264;11.436;2023-09-12T11:16:41;95830.03;;;41.75;22.03
13604;BME280;24578;48.264;11.436;2023-09-12T11:23:10;95832.41;;;40.98;21.66
13604;BME280;24578;48.264;11.436;2023-09-12T11:29:37;95829.56;;;39.59;23.42
13604;BME280;24578;48.264;11.436;2023-09-12T11:35:58;95832.66;;;39.89;23.16
13604;BME280;24578;48.264;11.436;2023-09-12T11:42:23;95827.03;;;40.48;23.66
13604;BME280;24578;48.264;11.436;2023-09-12T11:48:46;95822.13;;;39.65;23.77
13604;BME280;24578;48.264;11.436;2023-09-12T11:55:07;95817.88;;;38.62;24.92
13604;BME280;24578;48.264;11.436;2023-09-12T12:01:29;95813.56;;;38.75;25.93
13604;BME280;24578;48.264;11.436;2023-09-12T12:07:51;95810.25;;;38.92;25.69
13604;BME280;24578;48.264;11.436;2023-09-12T12:14:16;95808.03;;;39.54;24.95
13604;BME280;24578;48.264;11.436;2023-09-12T12:20:38;95800.78;;;39.40;23.85
13604;BME280;24578;48.264;11.436;2023-09-12T12:27:03;95805.84;;;39.19;22.85
13604;BME280;24578;48.264;11.436;2023-09-12T12:33:24;95800.16;;;38.84;23.84
13604;BME280;24578;48.264;11.436;2023-09-12T12:39:46;95788.63;;;39.29;23.80
13604;BME280;24578;48.264;11.436;2023-09-12T12:46:11;95791.19;;;39.57;23.40
13604;BME280;24578;48.264;11.436;2023-09-12T12:52:33;95777.75;;;39.52;24.00
13604;BME280;24578;48.264;11.436;2023-09-12T12:58:56;95772.72;;;39.13;24.51
13604;BME280;24578;48.264;11.436;2023-09-12T13:05:25;95763.22;;;39.02;24.52
13604;BME280;24578;48.264;11.436;2023-09-12T13:11:47;95756.03;;;38.97;23.54
13604;BME280;24578;48.264;11.436;2023-09-12T13:18:08;95758.44;;;38.99;23.41
13604;BME280;24578;48.264;11.436;2023-09-12T13:24:29;95750.88;;;38.73;24.33
13604;BME280;24578;48.264;11.436;2023-09-12T13:30:54;95751.94;;;39.00;25.27
13604;BME280;24578;48.264;11.436;2023-09-12T13:37:15;95751.75;;;39.19;24.96
13604;BME280;24578;48.264;11.436;2023-09-12T13:43:37;95745.00;;;39.08;24.46
13604;BME280;24578;48.264;11.436;2023-09-12T13:49:59;95733.59;;;38.60;24.71
13604;BME280;24578;48.264;11.436;2023-09-12T13:56:20;95729.06;;;39.06;23.96
13604;BME280;24578;48.264;11.436;2023-09-12T14:02:41;95723.66;;;38.69;24.40
13604;BME280;24578;48.264;11.436;2023-09-12T14:09:02;95722.69;;;37.82;25.20
13604;BME280;24578;48.264;11.436;2023-09-12T14:15:24;95719.06;;;37.58;25.87
13604;BME280;24578;48.264;11.436;2023-09-12T14:21:46;95724.72;;;36.71;26.14
13604;BME280;24578;48.264;11.436;2023-09-12T14:28:07;95719.84;;;35.81;27.83
13604;BME280;24578;48.264;11.436;2023-09-12T14:34:29;95724.47;;;34.72;27.72
13604;BME280;24578;48.264;11.436;2023-09-12T14:40:55;95721.59;;;33.71;28.45
13604;BME280;24578;48.264;11.436;2023-09-12T14:47:16;95717.88;;;33.31;30.51
13604;BME280;24578;48.264;11.436;2023-09-12T14:53:37;95717.63;;;33.28;30.25
13604;BME280;24578;48.264;11.436;2023-09-12T15:00:06;95723.16;;;32.69;29.91
13604;BME280;24578;48.264;11.436;2023-09-12T15:06:27;95727.16;;;32.51;30.41
13604;BME280;24578;48.264;11.436;2023-09-12T15:12:49;95743.47;;;31.91;32.14
13604;BME280;24578;48.264;11.436;2023-09-12T15:19:11;95739.91;;;31.42;33.57
13604;BME280;24578;48.264;11.436;2023-09-12T15:25:34;95745.41;;;30.98;34.97
13604;BME280;24578;48.264;11.436;2023-09-12T15:31:58;95737.84;;;30.62;35.75
13604;BME280;24578;48.264;11.436;2023-09-12T15:38:21;95743.91;;;30.35;36.47
13604;BME280;24578;48.264;11.436;2023-09-12T15:44:42;95740.00;;;29.99;39.04
13604;BME280;24578;48.264;11.436;2023-09-12T15:51:04;95734.88;;;29.58;40.63
13604;BME280;24578;48.264;11.436;2023-09-12T15:57:26;95737.75;;;29.05;41.66
13604;BME280;24578;48.264;11.436;2023-09-12T16:03:47;95732.00;;;28.67;42.99
13604;BME280;24578;48.264;11.436;2023-09-12T16:10:09;95741.50;;;28.34;43.78
13604;BME280;24578;48.264;11.436;2023-09-12T16:16:33;95725.34;;;28.12;45.78
13604;BME280;24578;48.264;11.436;2023-09-12T16:22:56;95724.47;;;27.94;46.10
13604;BME280;24578;48.264;11.436;2023-09-12T16:29:17;95726.22;;;27.77;45.79
13604;BME280;24578;48.264;11.436;2023-09-12T16:35:39;95718.81;;;27.55;46.77
13604;BME280;24578;48.264;11.436;2023-09-12T16:42:01;95723.38;;;27.24;47.97
13604;BME280;24578;48.264;11.436;2023-09-12T16:48:22;95744.00;;;26.98;48.98
13604;BME280;24578;48.264;11.436;2023-09-12T16:54:44;95747.59;;;26.73;49.62
13604;BME280;24578;48.264;11.436;2023-09-12T17:01:05;95752.66;;;26.44;51.51
13604;BME280;24578;48.264;11.436;2023-09-12T17:07:28;95768.50;;;26.33;52.59
13604;BME280;24578;48.264;11.436;2023-09-12T17:13:50;95752.41;;;26.16;52.81
13604;BME280;24578;48.264;11.436;2023-09-12T17:20:11;95763.56;;;25.99;54.42
13604;BME280;24578;48.264;11.436;2023-09-12T17:26:34;95773.28;;;26.05;55.71
13604;BME280;24578;48.264;11.436;2023-09-12T17:32:55;95789.22;;;25.80;57.49
13604;BME280;24578;48.264;11.436;2023-09-12T17:39:16;95793.72;;;25.54;59.99
13604;BME280;24578;48.264;11.436;2023-09-12T17:45:38;95825.25;;;25.30;62.65
13604;BME280;24578;48.264;11.436;2023-09-12T17:52:00;95842.47;;;25.14;64.80
13604;BME280;24578;48.264;11.436;2023-09-12T17:58:22;95854.75;;;25.02;66.28
13604;BME280;24578;48.264;11.436;2023-09-12T18:04:43;95868.19;;;25.00;66.96
13604;BME280;24578;48.264;11.436;2023-09-12T18:11:07;95881.47;;;24.93;67.32
13604;BME280;24578;48.264;11.436;2023-09-12T18:17:28;95883.75;;;24.83;68.78
13604;BME280;24578;48.264;11.436;2023-09-12T18:23:49;95884.97;;;24.81;69.89
13604;BME280;24578;48.264;11.436;2023-09-12T18:30:10;95896.78;;;24.78;71.47
13604;BME280;24578;48.264;11.436;2023-09-12T18:36:33;95905.53;;;24.78;72.67
13604;BME280;24578;48.264;11.436;2023-09-12T18:42:54;95907.41;;;24.71;72.15
13604;BME280;24578;48.264;11.436;2023-09-12T18:49:15;95899.75;;;24.23;76.44
13604;BME280;24578;48.264;11.436;2023-09-12T18:55:36;95882.69;;;23.98;75.72
13604;BME280;24578;48.264;11.436;2023-09-12T19:01:57;95858.88;;;23.71;78.31
13604;BME280;24578;48.264;11.436;2023-09-12T19:08:19;95857.84;;;23.59;78.34
13604;BME280;24578;48.264;11.436;2023-09-12T19:14:41;95832.66;;;23.63;78.49
13604;BME280;24578;48.264;11.436;2023-09-12T19:21:02;95834.06;;;23.46;78.14
13604;BME280;24578;48.264;11.436;2023-09-12T19:27:26;95824.09;;;23.21;80.25
13604;BME280;24578;48.264;11.436;2023-09-12T19:33:47;95814.28;;;23.01;82.34
13604;BME280;24578;48.264;11.436;2023-09-12T19:40:09;95822.75;;;22.76;87.54
13604;BME280;24578;48.264;11.436;2023-09-12T19:46:33;95833.44;;;22.68;93.12
13604;BME280;24578;48.264;11.436;2023-09-12T19:52:54;95864.84;;;22.49;97.74
13604;BME280;24578;48.264;11.436;2023-09-12T19:59:15;95866.66;;;22.20;100.00
13604;BME280;24578;48.264;11.436;2023-09-12T20:05:37;95879.75;;;22.07;100.00
13604;BME280;24578;48.264;11.436;2023-09-12T20:11:58;95885.91;;;21.93;100.00
13604;BME280;24578;48.264;11.436;2023-09-12T20:18:20;95865.56;;;21.80;100.00
13604;BME280;24578;48.264;11.436;2023-09-12T20:24:41;95856.16;;;21.70;100.00
13604;BME280;24578;48.264;11.436;2023-09-12T20:31:03;95862.59;;;21.61;100.00
13604;BME280;24578;48.264;11.436;2023-09-12T20:37:24;95855.72;;;21.45;100.00
13604;BME280;24578;48.264;11.436;2023-09-12T20:43:45;95847.19;;;21.43;100.00
13604;BME280;24578;48.264;11.436;2023-09-12T20:50:07;95850.47;;;21.23;100.00
13604;BME280;24578;48.264;11.436;2023-09-12T20:56:30;95876.22;;;21.28;100.00
13604;BME280;24578;48.264;11.436;2023-09-12T21:02:52;95870.13;;;21.06;100.00
13604;BME280;24578;48.264;11.436;2023-09-12T21:09:13;95871.84;;;20.98;100.00
13604;BME280;24578;48.264;11.436;2023-09-12T21:15:36;95891.09;;;20.84;100.00
13604;BME280;24578;48.264;11.436;2023-09-12T21:21:57;95902.81;;;20.51;100.00
13604;BME280;24578;48.264;11.436;2023-09-12T21:28:18;95892.81;;;20.32;100.00
13604;BME280;24578;48.264;11.436;2023-09-12T21:34:44;95914.19;;;20.14;100.00
13604;BME280;24578;48.264;11.436;2023-09-12T21:41:05;95915.91;;;20.06;100.00
13604;BME280;24578;48.264;11.436;2023-09-12T21:47:26;95898.25;;;20.00;100.00
13604;BME280;24578;48.264;11.436;2023-09-12T21:53:48;95897.06;;;19.80;100.00
13604;BME280;24578;48.264;11.436;2023-09-12T22:00:10;95904.44;;;19.61;100.00
13604;BME280;24578;48.264;11.436;2023-09-12T22:06:41;95907.50;;;19.41;100.00
13604;BME280;24578;48.264;11.436;2023-09-12T22:13:02;95927.75;;;19.32;100.00
13604;BME280;24578;48.264;11.436;2023-09-12T22:19:23;95928.13;;;19.21;100.00
13604;BME280;24578;48.264;11.436;2023-09-12T22:25:46;95915.94;;;19.05;100.00
13604;BME280;24578;48.264;11.436;2023-09-12T22:32:08;95928.13;;;18.81;100.00
13604;BME280;24578;48.264;11.436;2023-09-12T22:38:30;95929.53;;;18.61;100.00
13604;BME280;24578;48.264;11.436;2023-09-12T22:44:51;95940.88;;;18.45;100.00
13604;BME280;24578;48.264;11.436;2023-09-12T22:51:12;95947.13;;;18.35;100.00
13604;BME280;24578;48.264;11.436;2023-09-12T22:57:34;95937.78;;;18.33;100.00
13604;BME280;24578;48.264;11.436;2023-09-12T23:03:57;95935.47;;;18.30;100.00
13604;BME280;24578;48.264;11.436;2023-09-12T23:10:18;95926.81;;;18.29;100.00
13604;BME280;24578;48.264;11.436;2023-09-12T23:16:39;95932.22;;;18.28;100.00
13604;BME280;24578;48.264;11.436;2023-09-12T23:23:01;95939.41;;;18.34;100.00
13604;BME280;24578;48.264;11.436;2023-09-12T23:29:23;95942.03;;;18.34;100.00
13604;BME280;24578;48.264;11.436;2023-09-12T23:35:45;95939.41;;;18.34;100.00
13604;BME280;24578;48.264;11.436;2023-09-12T23:42:06;95928.13;;;18.33;100.00
13604;BME280;24578;48.264;11.436;2023-09-12T23:48:27;95934.84;;;18.28;100.00
13604;BME280;24578;48.264;11.436;2023-09-12T23:54:48;95940.41;;;18.24;100.00
